Time;durP1;ratioP1;P1;durP2;ratioP2;P2;SDS_P1;SDS_P2;PMS_P1;PMS_P2;Temp;Humidity;BMP_temperature;BMP_pressure;BME280_temperature;BME280_humidity;BME280_pressure;Samples;Min_cycle;Max_cycle;Signal;HPM_P1;HPM_P2
2022/01/07 00:01:01;;;;;;;22.27;19.40;;;;;;;-4.18;100.00;99479.00;2095588;28;20221;-76
2022/01/07 00:02:02;;;;;;;21.52;19.27;;;;;;;-4.17;100.00;99485.00;2104870;28;20226;-76
2022/01/07 00:03:04;;;;;;;20.17;18.30;;;;;;;-4.18;100.00;99486.81;2104737;28;20213;-76
2022/01/07 00:04:06;;;;;;;22.35;18.70;;;;;;;-4.21;100.00;99479.38;2096346;28;20676;-75
2022/01/07 00:05:09;;;;;;;22.00;18.20;;;;;;;-4.17;100.00;99482.41;2104777;28;20610;-75
2022/01/07 00:06:09;;;;;;;21.45;18.30;;;;;;;-4.21;100.00;99486.41;2104262;28;20217;-76
2022/01/07 00:07:11;;;;;;;22.80;18.83;;;;;;;-4.22;100.00;99488.19;2096319;28;20225;-76
2022/01/07 00:08:13;;;;;;;22.08;18.48;;;;;;;-4.25;100.00;99483.38;2095827;28;20237;-76
2022/01/07 00:09:18;;;;;;;24.23;18.27;;;;;;;-4.25;100.00;99483.38;2104631;28;20647;-76
2022/01/07 00:10:20;;;;;;;20.15;17.98;;;;;;;-4.23;100.00;99497.00;2105491;28;20217;-75
2022/01/07 00:11:22;;;;;;;20.63;18.38;;;;;;;-4.22;100.00;99490.81;2104175;28;20239;-75
2022/01/07 00:12:23;;;;;;;21.42;17.65;;;;;;;-4.21;100.00;99495.00;2104419;28;20585;-76
2022/01/07 00:13:25;;;;;;;21.90;18.40;;;;;;;-4.25;100.00;99493.78;2105518;28;20225;-76
2022/01/07 00:14:26;;;;;;;20.60;17.25;;;;;;;-4.24;100.00;99492.81;2104671;28;20555;-76
2022/01/07 00:15:35;;;;;;;20.97;17.53;;;;;;;-4.25;100.00;99491.19;2096301;28;20232;-76
2022/01/07 00:16:40;;;;;;;24.27;18.70;;;;;;;-4.24;100.00;99503.22;2104209;28;20228;-76
2022/01/07 00:17:41;;;;;;;24.80;18.42;;;;;;;-4.24;100.00;99502.41;2104660;28;20225;-77
2022/01/07 00:18:44;;;;;;;22.30;18.37;;;;;;;-4.24;100.00;99500.63;2104569;28;20225;-77
2022/01/07 00:19:45;;;;;;;23.58;18.80;;;;;;;-4.25;100.00;99504.22;2104676;28;20627;-77
2022/01/07 00:20:47;;;;;;;22.67;18.35;;;;;;;-4.21;100.00;99505.44;2104531;28;20228;-77
2022/01/07 00:21:48;;;;;;;25.30;18.85;;;;;;;-4.16;100.00;99508.28;2096205;28;20225;-77
2022/01/07 00:22:51;;;;;;;22.27;18.53;;;;;;;-4.16;100.00;99505.69;2096560;28;20704;-77
2022/01/07 00:23:55;;;;;;;25.10;18.58;;;;;;;-4.14;100.00;99501.09;2096407;28;20292;-77
2022/01/07 00:24:57;;;;;;;24.88;18.20;;;;;;;-4.12;100.00;99508.69;2104293;28;20703;-77
2022/01/07 00:25:58;;;;;;;28.58;19.20;;;;;;;-4.13;100.00;99505.28;2104241;28;20221;-77
2022/01/07 00:27:01;;;;;;;24.57;18.37;;;;;;;-4.12;100.00;99506.09;2096082;28;20792;-77
2022/01/07 00:28:02;;;;;;;24.85;18.63;;;;;;;-4.11;100.00;99512.91;2104549;28;20288;-77
2022/01/07 00:29:03;;;;;;;21.43;16.57;;;;;;;-4.14;100.00;99514.09;2096203;28;20245;-77
2022/01/07 00:30:07;;;;;;;21.73;18.20;;;;;;;-4.10;100.00;99512.72;2096207;28;20229;-77
2022/01/07 00:31:10;;;;;;;25.48;18.90;;;;;;;-4.07;100.00;99511.56;2096310;28;20599;-77
2022/01/07 00:32:11;;;;;;;25.48;18.35;;;;;;;-4.05;100.00;99518.19;2095834;28;20614;-78
2022/01/07 00:33:12;;;;;;;21.77;18.57;;;;;;;-4.03;100.00;99512.78;2104547;28;21628;-77
2022/01/07 00:34:13;;;;;;;19.48;17.45;;;;;;;-4.07;100.00;99512.38;2105259;28;20217;-77
2022/01/07 00:35:17;;;;;;;22.23;17.30;;;;;;;-4.05;100.00;99506.97;2104454;28;20225;-77
2022/01/07 00:36:19;;;;;;;20.50;18.13;;;;;;;-4.06;100.00;99511.38;2096526;28;20222;-77
2022/01/07 00:37:25;;;;;;;25.50;18.50;;;;;;;-4.01;100.00;99516.00;2096420;28;20672;-76
2022/01/07 00:38:27;;;;;;;23.48;18.33;;;;;;;-4.03;100.00;99516.19;2104205;28;20325;-76
2022/01/07 00:39:30;;;;;;;24.10;19.33;;;;;;;-3.98;100.00;99520.84;2105292;28;20213;-76
2022/01/07 00:40:31;;;;;;;22.88;18.35;;;;;;;-4.04;100.00;99511.97;2104766;28;20291;-75
2022/01/07 00:41:33;;;;;;;28.27;19.07;;;;;;;-4.03;100.00;99524.00;2096036;28;20241;-75
2022/01/07 00:42:34;;;;;;;25.85;17.85;;;;;;;-4.06;100.00;99524.38;2104718;28;20217;-75
2022/01/07 00:43:36;;;;;;;24.37;18.53;;;;;;;-4.02;100.00;99530.81;2104573;28;20217;-75
2022/01/07 00:44:38;;;;;;;23.83;18.80;;;;;;;-4.03;100.00;99523.19;2104501;28;20225;-76
2022/01/07 00:45:40;;;;;;;25.23;18.83;;;;;;;-4.07;100.00;99524.59;2104940;28;20274;-76
2022/01/07 00:46:41;;;;;;;26.05;19.95;;;;;;;-4.07;100.00;99532.41;2105256;28;20710;-76
2022/01/07 00:47:42;;;;;;;29.77;19.63;;;;;;;-4.11;100.00;99520.72;2104263;28;20583;-76
2022/01/07 00:48:44;;;;;;;25.85;18.77;;;;;;;-4.11;100.00;99526.75;2104426;28;20221;-75
2022/01/07 00:49:45;;;;;;;24.45;19.10;;;;;;;-4.13;100.00;99528.75;2105243;28;20233;-76
2022/01/07 00:50:48;;;;;;;22.33;19.20;;;;;;;-4.17;100.00;99522.31;2104338;28;20255;-76
2022/01/07 00:51:49;;;;;;;31.65;18.77;;;;;;;-4.14;100.00;99524.53;2104716;28;20750;-75
2022/01/07 00:52:51;;;;;;;24.77;19.70;;;;;;;-4.14;100.00;99527.13;2096345;28;20232;-76
2022/01/07 00:53:52;;;;;;;28.17;19.20;;;;;;;-4.17;100.00;99530.13;2104613;28;20221;-76
2022/01/07 00:54:55;;;;;;;22.23;19.13;;;;;;;-4.11;100.00;99533.75;2105014;28;20221;-76
2022/01/07 00:55:57;;;;;;;22.70;18.85;;;;;;;-4.13;100.00;99523.53;2104265;28;20293;-76
2022/01/07 00:56:57;;;;;;;23.77;18.98;;;;;;;-4.12;100.00;99530.34;2104443;28;20274;-75
2022/01/07 00:57:59;;;;;;;23.60;19.40;;;;;;;-4.14;100.00;99529.75;2104461;28;20217;-75
2022/01/07 00:59:03;;;;;;;24.35;19.63;;;;;;;-4.14;100.00;99531.53;2104540;28;20268;-75
2022/01/07 01:00:08;;;;;;;26.05;18.90;;;;;;;-4.19;100.00;99526.09;2104366;28;20643;-75
2022/01/07 01:01:09;;;;;;;25.88;20.00;;;;;;;-4.18;100.00;99536.31;2096012;28;20225;-75
2022/01/07 01:02:10;;;;;;;24.20;18.67;;;;;;;-4.18;100.00;99538.09;2096360;28;20252;-75
2022/01/07 01:03:11;;;;;;;23.73;18.90;;;;;;;-4.17;100.00;99537.09;2104359;28;20664;-76
2022/01/07 01:04:13;;;;;;;22.93;19.50;;;;;;;-4.20;100.00;99542.72;2096075;28;20276;-75
2022/01/07 01:05:18;;;;;;;24.52;19.95;;;;;;;-4.19;100.00;99534.69;2096274;28;20304;-76
2022/01/07 01:06:20;;;;;;;27.48;18.67;;;;;;;-4.23;100.00;99532.69;2096574;28;20304;-75
2022/01/07 01:07:20;;;;;;;25.63;19.50;;;;;;;-4.22;100.00;99545.50;2104469;28;20221;-76
2022/01/07 01:08:22;;;;;;;31.67;20.20;;;;;;;-4.23;100.00;99545.69;2104098;28;20312;-76
2022/01/07 01:09:23;;;;;;;30.17;20.02;;;;;;;-4.29;100.00;99535.03;2103910;28;20733;-76
2022/01/07 01:10:27;;;;;;;27.60;20.03;;;;;;;-4.31;100.00;99544.03;2104523;28;20377;-75
2022/01/07 01:11:32;;;;;;;23.42;20.42;;;;;;;-4.37;100.00;99529.94;2096017;28;20232;-75
2022/01/07 01:12:36;;;;;;;22.30;19.98;;;;;;;-4.33;100.00;99539.00;2104338;28;20225;-76
2022/01/07 01:13:38;;;;;;;23.95;20.23;;;;;;;-4.33;100.00;99536.41;2103992;28;20291;-76
2022/01/07 01:14:39;;;;;;;25.73;20.77;;;;;;;-4.25;100.00;99539.88;2104326;28;20229;-75
2022/01/07 01:15:41;;;;;;;24.05;20.00;;;;;;;-4.27;100.00;99540.03;2104039;28;20221;-76
2022/01/07 01:16:44;;;;;;;23.52;19.13;;;;;;;-4.30;100.00;99543.03;2104452;28;26724;-75
2022/01/07 01:17:45;;;;;;;27.45;20.35;;;;;;;-4.32;100.00;99534.59;2104912;28;20217;-75
2022/01/07 01:18:49;;;;;;;24.00;19.88;;;;;;;-4.32;100.00;99539.81;2104600;28;20224;-76
2022/01/07 01:19:51;;;;;;;26.63;19.63;;;;;;;-4.34;100.00;99534.81;2104427;28;20274;-75
2022/01/07 01:20:53;;;;;;;32.35;20.27;;;;;;;-4.39;100.00;99528.53;2105809;28;20236;-76
2022/01/07 01:21:54;;;;;;;25.73;19.55;;;;;;;-4.36;100.00;99536.75;2105707;28;20221;-76
2022/01/07 01:22:56;;;;;;;23.92;19.95;;;;;;;-4.37;100.00;99536.97;2106874;28;20249;-75
2022/01/07 01:23:57;;;;;;;27.13;20.67;;;;;;;-4.40;100.00;99532.13;2105982;28;22487;-76
2022/01/07 01:24:58;;;;;;;33.53;21.30;;;;;;;-4.43;100.00;99525.50;2106056;28;20312;-75
2022/01/07 01:26:00;;;;;;;27.90;20.38;;;;;;;-4.43;100.00;99532.50;2106807;28;20678;-75
2022/01/07 01:27:03;;;;;;;25.65;19.95;;;;;;;-4.47;100.00;99531.25;2105990;28;20266;-75
2022/01/07 01:28:04;;;;;;;25.83;20.17;;;;;;;-4.42;100.00;99523.72;2105870;28;20540;-75
2022/01/07 01:29:06;;;;;;;25.52;19.17;;;;;;;-4.43;100.00;99535.09;2106007;28;20308;-75
2022/01/07 01:30:08;;;;;;;24.27;20.35;;;;;;;-4.45;100.00;99531.88;2105974;28;20247;-75
2022/01/07 01:31:10;;;;;;;24.17;20.13;;;;;;;-4.45;100.00;99534.47;2105504;28;20266;-75
2022/01/07 01:32:11;;;;;;;22.90;19.20;;;;;;;-4.48;100.00;99530.47;2106063;28;20249;-75
2022/01/07 01:33:14;;;;;;;26.45;20.38;;;;;;;-4.46;100.00;99531.06;2105480;28;20276;-75
2022/01/07 01:34:15;;;;;;;24.30;19.38;;;;;;;-4.46;100.00;99532.88;2097707;28;20672;-75
2022/01/07 01:35:17;;;;;;;23.60;19.58;;;;;;;-4.48;100.00;99530.47;2097528;28;20683;-74
2022/01/07 01:36:18;;;;;;;25.00;20.13;;;;;;;-4.51;100.00;99530.03;2105988;28;20217;-74
2022/01/07 01:37:20;;;;;;;27.30;20.17;;;;;;;-4.55;100.00;99535.59;2105899;28;20224;-75
2022/01/07 01:38:21;;;;;;;27.58;19.73;;;;;;;-4.59;100.00;99531.78;2097540;28;20236;-74
2022/01/07 01:39:23;;;;;;;24.20;21.03;;;;;;;-4.58;100.00;99530.78;2106134;28;20229;-75
2022/01/07 01:40:27;;;;;;;30.20;21.13;;;;;;;-4.58;100.00;99541.19;2106416;28;20225;-75
2022/01/07 01:41:30;;;;;;;26.17;20.67;;;;;;;-4.60;100.00;99527.56;2106273;28;20683;-75
2022/01/07 01:42:31;;;;;;;23.13;20.70;;;;;;;-4.57;100.00;99536.78;2097534;28;20338;-75
2022/01/07 01:43:32;;;;;;;26.60;22.10;;;;;;;-4.58;100.00;99538.59;2105859;28;20225;-74
2022/01/07 01:44:33;;;;;;;31.83;21.52;;;;;;;-4.64;100.00;99528.91;2105805;28;20221;-75
2022/01/07 01:45:35;;;;;;;27.13;21.00;;;;;;;-4.68;100.00;99519.88;2106046;28;20248;-75
2022/01/07 01:46:36;;;;;;;23.77;20.23;;;;;;;-4.70;100.00;99540.06;2106777;28;20217;-74
2022/01/07 01:47:40;;;;;;;28.05;20.75;;;;;;;-4.69;100.00;99533.88;2105926;28;20270;-75
2022/01/07 01:48:41;;;;;;;29.58;20.25;;;;;;;-4.68;100.00;99537.28;2106319;28;20575;-75
2022/01/07 01:49:44;;;;;;;24.83;20.67;;;;;;;-4.72;100.00;99529.03;2106734;28;20245;-76
2022/01/07 01:50:46;;;;;;;26.60;21.00;;;;;;;-4.70;100.00;99529.63;2105731;28;20229;-75
2022/01/07 01:51:47;;;;;;;27.63;20.55;;;;;;;-4.72;100.00;99523.81;2097386;28;20225;-75
2022/01/07 01:52:52;;;;;;;25.63;21.00;;;;;;;-4.74;100.00;99523.22;2097721;28;20232;-75
2022/01/07 01:53:55;;;;;;;28.17;20.23;;;;;;;-4.72;100.00;99528.22;2097501;28;20225;-75
2022/01/07 01:54:57;;;;;;;29.05;20.77;;;;;;;-4.73;100.00;99532.63;2106094;28;20225;-75
2022/01/07 01:55:57;;;;;;;27.63;20.80;;;;;;;-4.73;100.00;99526.63;2096990;28;20226;-75
2022/01/07 01:57:00;;;;;;;28.00;20.40;;;;;;;-4.71;100.00;99528.03;2105885;28;20217;-74
2022/01/07 01:58:02;;;;;;;26.10;19.58;;;;;;;-4.70;100.00;99527.03;2106583;28;20729;-75
2022/01/07 01:59:03;;;;;;;28.20;19.35;;;;;;;-4.75;100.00;99526.81;2105867;28;20218;-75
2022/01/07 02:00:09;;;;;;;31.85;19.55;;;;;;;-4.74;100.00;99523.22;2105777;28;20300;-75
2022/01/07 02:01:15;;;;;;;21.23;19.10;;;;;;;-4.75;100.00;99519.00;2106081;28;20720;-75
2022/01/07 02:02:16;;;;;;;27.08;19.92;;;;;;;-4.74;100.00;99525.00;2105696;28;20225;-74
2022/01/07 02:03:18;;;;;;;23.57;19.73;;;;;;;-4.74;100.00;99515.41;2105707;28;20214;-75
2022/01/07 02:04:19;;;;;;;21.98;18.25;;;;;;;-4.74;100.00;99512.00;2105404;28;20584;-75
2022/01/07 02:05:20;;;;;;;25.30;20.00;;;;;;;-4.77;100.00;99515.78;2105849;28;20239;-75
2022/01/07 02:06:21;;;;;;;26.95;19.48;;;;;;;-4.77;100.00;99521.00;2105859;28;20245;-74
2022/01/07 02:07:26;;;;;;;24.60;19.77;;;;;;;-4.81;100.00;99519.72;2097190;28;20692;-76
2022/01/07 02:08:29;;;;;;;26.95;20.20;;;;;;;-4.81;100.00;99513.72;2097622;28;20241;-75
2022/01/07 02:09:35;;;;;;;25.23;20.25;;;;;;;-4.81;100.00;99514.53;2105659;28;20279;-75
2022/01/07 02:10:36;;;;;;;27.33;20.80;;;;;;;-4.84;100.00;99505.31;2106471;28;20213;-75
2022/01/07 02:11:38;;;;;;;28.93;20.50;;;;;;;-4.78;100.00;99519.34;2106548;28;20255;-75
2022/01/07 02:12:41;;;;;;;27.88;20.42;;;;;;;-4.80;100.00;99510.94;2105105;28;20240;-74
2022/01/07 02:13:44;;;;;;;25.13;20.70;;;;;;;-4.81;100.00;99511.91;2105742;28;20225;-75
2022/01/07 02:14:52;;;;;;;24.45;20.75;;;;;;;-4.82;100.00;99506.91;2105620;28;20221;-75
2022/01/07 02:15:54;;;;;;;26.27;21.42;;;;;;;-4.84;100.00;99509.69;2105206;28;20743;-75
2022/01/07 02:16:55;;;;;;;28.38;22.45;;;;;;;-4.88;100.00;99508.44;2097256;28;20225;-75
2022/01/07 02:17:57;;;;;;;32.93;21.37;;;;;;;-4.88;100.00;99506.66;2097135;28;20226;-75
2022/01/07 02:18:58;;;;;;;25.13;21.30;;;;;;;-4.86;100.00;99501.28;2105738;28;20754;-75
2022/01/07 02:20:01;;;;;;;23.02;20.65;;;;;;;-4.91;100.00;99499.22;2105604;28;20691;-73
2022/01/07 02:21:03;;;;;;;24.30;21.50;;;;;;;-4.89;100.00;99506.84;2097494;28;20218;-73
2022/01/07 02:22:08;;;;;;;28.45;21.80;;;;;;;-4.87;100.00;99510.06;2105660;28;20300;-73
2022/01/07 02:23:09;;;;;;;27.55;20.67;;;;;;;-4.87;100.00;99499.63;2105231;28;20709;-73
2022/01/07 02:24:11;;;;;;;24.83;21.47;;;;;;;-4.87;100.00;99500.44;2106281;28;20609;-74
2022/01/07 02:25:13;;;;;;;28.13;21.83;;;;;;;-4.89;100.00;99497.22;2105454;28;20232;-73
2022/01/07 02:26:15;;;;;;;27.83;22.30;;;;;;;-4.89;100.00;99496.44;2105603;28;20271;-73
2022/01/07 02:27:17;;;;;;;23.33;20.52;;;;;;;-4.86;100.00;99501.28;2105491;28;20228;-73
2022/01/07 02:28:19;;;;;;;25.83;21.15;;;;;;;-4.88;100.00;99493.63;2105471;28;20620;-74
2022/01/07 02:29:25;;;;;;;28.95;22.33;;;;;;;-4.88;100.00;99496.25;2105300;28;20239;-74
2022/01/07 02:30:28;;;;;;;24.85;21.25;;;;;;;-4.89;100.00;99496.44;2105272;28;20301;-74
2022/01/07 02:31:31;;;;;;;29.23;22.05;;;;;;;-4.91;100.00;99493.22;2105795;28;20221;-74
2022/01/07 02:32:31;;;;;;;31.52;21.92;;;;;;;-4.92;100.00;99500.22;2106188;28;20221;-74
2022/01/07 02:33:33;;;;;;;26.60;22.30;;;;;;;-4.88;100.00;99500.63;2106283;28;20217;-73
2022/01/07 02:34:34;;;;;;;27.50;22.23;;;;;;;-4.90;100.00;99500.03;2106357;28;20213;-73
2022/01/07 02:35:45;;;;;;;30.03;22.03;;;;;;;-4.94;100.00;99493.59;2106239;28;20241;-73
2022/01/07 02:36:46;;;;;;;28.63;20.75;;;;;;;-4.94;100.00;99499.59;2105136;28;20283;-74
2022/01/07 02:37:47;;;;;;;26.47;20.93;;;;;;;-4.95;100.00;99497.16;2097048;28;20221;-74
2022/01/07 02:38:48;;;;;;;25.02;19.80;;;;;;;-4.97;100.00;99502.56;2105505;28;20228;-73
2022/01/07 02:39:51;;;;;;;25.47;21.37;;;;;;;-4.97;100.00;99489.53;2105438;28;20237;-74
2022/01/07 02:40:51;;;;;;;31.33;20.75;;;;;;;-4.98;100.00;99497.53;2105534;28;20217;-74
2022/01/07 02:41:54;;;;;;;28.23;20.47;;;;;;;-5.00;100.00;99499.53;2105012;28;20316;-74
2022/01/07 02:42:55;;;;;;;25.73;20.70;;;;;;;-5.02;100.00;99498.91;2105542;28;20228;-73
2022/01/07 02:43:57;;;;;;;29.27;21.77;;;;;;;-5.01;100.00;99497.91;2105422;28;20229;-73
2022/01/07 02:44:58;;;;;;;28.95;21.85;;;;;;;-5.05;100.00;99491.44;2097320;28;20223;-74
2022/01/07 02:46:00;;;;;;;28.43;20.97;;;;;;;-5.09;100.00;99485.81;2105506;28;20225;-74
2022/01/07 02:47:01;;;;;;;26.23;21.00;;;;;;;-5.11;100.00;99487.81;2106158;28;20224;-74
2022/01/07 02:48:03;;;;;;;24.27;21.67;;;;;;;-5.10;100.00;99488.63;2105284;28;20241;-74
2022/01/07 02:49:09;;;;;;;32.83;22.33;;;;;;;-5.09;100.00;99485.81;2097145;28;20226;-74
2022/01/07 02:50:12;;;;;;;26.73;21.23;;;;;;;-5.15;100.00;99484.75;2096958;28;20725;-74
2022/01/07 02:51:15;;;;;;;32.17;20.67;;;;;;;-5.16;100.00;99492.75;2096962;28;20306;-73
2022/01/07 02:52:15;;;;;;;25.10;21.08;;;;;;;-5.16;100.00;99496.16;2105289;28;20224;-74
2022/01/07 02:53:17;;;;;;;27.30;21.60;;;;;;;-5.12;100.00;99501.81;2106218;28;20217;-74
2022/01/07 02:54:19;;;;;;;28.17;21.25;;;;;;;-5.12;100.00;99504.41;2105268;28;20245;-74
2022/01/07 02:55:20;;;;;;;28.50;21.20;;;;;;;-5.12;100.00;99502.63;2105326;28;20217;-74
2022/01/07 02:56:22;;;;;;;30.50;23.30;;;;;;;-5.12;100.00;99502.63;2106084;28;20227;-73
2022/01/07 02:57:24;;;;;;;28.70;22.88;;;;;;;-5.13;100.00;99500.97;2105724;28;20629;-74
2022/01/07 02:58:26;;;;;;;31.55;22.45;;;;;;;-5.09;100.00;99505.84;2106095;28;20225;-74
2022/01/07 02:59:27;;;;;;;26.15;20.75;;;;;;;-5.07;100.00;99504.66;2105085;28;21826;-74
2022/01/07 03:00:29;;;;;;;30.53;22.50;;;;;;;-5.04;100.00;99508.66;2096863;28;20244;-73
2022/01/07 03:01:30;;;;;;;31.92;21.30;;;;;;;-5.04;100.00;99504.28;2096853;28;20264;-73
2022/01/07 03:02:32;;;;;;;29.00;21.03;;;;;;;-5.04;100.00;99514.69;2105085;28;20745;-74
2022/01/07 03:03:33;;;;;;;27.58;20.17;;;;;;;-5.05;100.00;99509.66;2105914;28;20224;-73
2022/01/07 03:04:37;;;;;;;29.88;21.35;;;;;;;-5.05;100.00;99513.06;2104690;28;20228;-74
2022/01/07 03:05:41;;;;;;;29.23;21.20;;;;;;;-5.06;100.00;99511.47;2105167;28;20236;-73
2022/01/07 03:06:43;;;;;;;30.65;20.55;;;;;;;-5.06;100.00;99513.25;2105910;28;20228;-75
2022/01/07 03:07:47;;;;;;;29.40;22.02;;;;;;;-5.07;100.00;99509.06;2105100;28;20217;-73
2022/01/07 03:08:49;;;;;;;35.17;21.13;;;;;;;-5.09;100.00;99511.03;2104738;28;20598;-74
2022/01/07 03:09:51;;;;;;;30.58;22.60;;;;;;;-5.09;100.00;99501.44;2105190;28;20232;-74
2022/01/07 03:10:52;;;;;;;28.75;20.92;;;;;;;-5.06;100.00;99505.47;2106041;28;20217;-73
2022/01/07 03:11:54;;;;;;;28.98;21.40;;;;;;;-5.09;100.00;99506.63;2104653;28;20221;-74
2022/01/07 03:12:55;;;;;;;32.30;22.05;;;;;;;-5.08;100.00;99505.66;2096684;28;20643;-73
2022/01/07 03:13:57;;;;;;;28.40;21.80;;;;;;;-5.07;100.00;99516.84;2096717;28;20663;-73
2022/01/07 03:14:57;;;;;;;30.52;22.27;;;;;;;-5.15;100.00;99512.56;2105135;28;20841;-74
2022/01/07 03:15:59;;;;;;;28.77;22.27;;;;;;;-5.19;100.00;99504.34;2105735;28;20213;-73
2022/01/07 03:17:00;;;;;;;27.55;21.48;;;;;;;-5.21;100.00;99514.13;2105915;28;20559;-73
2022/01/07 03:18:03;;;;;;;34.53;23.17;;;;;;;-5.21;100.00;99508.91;2105399;28;20221;-73
2022/01/07 03:19:03;;;;;;;26.33;22.55;;;;;;;-5.22;100.00;99507.28;2105051;28;20706;-73
2022/01/07 03:20:07;;;;;;;29.53;22.27;;;;;;;-5.19;100.00;99508.72;2105234;28;20681;-73
2022/01/07 03:21:07;;;;;;;29.85;21.63;;;;;;;-5.15;100.00;99507.38;2104621;28;20216;-73
2022/01/07 03:22:10;;;;;;;35.73;22.57;;;;;;;-5.18;100.00;99510.34;2105890;28;20249;-74
2022/01/07 03:23:13;;;;;;;30.98;22.42;;;;;;;-5.19;100.00;99512.13;2105904;28;20675;-73
2022/01/07 03:24:17;;;;;;;31.13;22.42;;;;;;;-5.22;100.00;99506.47;2105816;28;20679;-73
2022/01/07 03:25:19;;;;;;;32.55;21.88;;;;;;;-5.19;100.00;99506.13;2105884;28;20783;-73
2022/01/07 03:26:21;;;;;;;28.58;21.63;;;;;;;-5.19;100.00;99511.34;2104955;28;20229;-73
2022/01/07 03:27:21;;;;;;;32.85;21.70;;;;;;;-5.22;100.00;99502.06;2096517;28;20304;-73
2022/01/07 03:28:23;;;;;;;28.07;21.13;;;;;;;-5.25;100.00;99502.47;2104786;28;20250;-75
2022/01/07 03:29:24;;;;;;;29.77;21.83;;;;;;;-5.23;100.00;99503.06;2105096;28;20233;-74
2022/01/07 03:30:28;;;;;;;25.97;22.00;;;;;;;-5.24;100.00;99496.25;2104662;28;20233;-73
2022/01/07 03:31:29;;;;;;;29.63;21.80;;;;;;;-5.24;100.00;99505.84;2104899;28;20217;-73
2022/01/07 03:32:31;;;;;;;26.60;21.00;;;;;;;-5.25;100.00;99517.25;2105027;28;20274;-73
2022/01/07 03:33:33;;;;;;;26.10;21.17;;;;;;;-5.25;100.00;99512.84;2105823;28;20217;-73
2022/01/07 03:34:33;;;;;;;26.15;20.63;;;;;;;-5.26;100.00;99511.25;2105014;28;20296;-73
2022/01/07 03:35:35;;;;;;;28.03;20.63;;;;;;;-5.25;100.00;99509.44;2104975;28;20216;-73
2022/01/07 03:36:36;;;;;;;30.45;22.30;;;;;;;-5.27;100.00;99514.84;2104970;28;20600;-74
2022/01/07 03:37:40;;;;;;;27.23;21.37;;;;;;;-5.27;100.00;99508.84;2104801;28;20332;-74
2022/01/07 03:38:43;;;;;;;30.52;22.75;;;;;;;-5.26;100.00;99510.44;2104743;28;20274;-75
2022/01/07 03:39:45;;;;;;;28.00;20.30;;;;;;;-5.29;100.00;99514.22;2104753;28;20355;-74
2022/01/07 03:40:47;;;;;;;29.10;20.67;;;;;;;-5.23;100.00;99512.66;2104941;28;20213;-73
2022/01/07 03:41:48;;;;;;;29.80;20.73;;;;;;;-5.23;100.00;99516.06;2105697;28;20553;-74
2022/01/07 03:42:50;;;;;;;29.37;21.10;;;;;;;-5.21;100.00;99508.91;2105036;28;20239;-73
2022/01/07 03:43:51;;;;;;;25.38;19.42;;;;;;;-5.21;100.00;99519.31;2104630;28;20218;-74
2022/01/07 03:44:53;;;;;;;34.27;21.43;;;;;;;-5.24;100.00;99514.47;2104937;28;20217;-74
2022/01/07 03:45:57;;;;;;;28.25;20.25;;;;;;;-5.27;100.00;99520.03;2104500;28;20233;-74
2022/01/07 03:46:58;;;;;;;26.30;21.98;;;;;;;-5.26;100.00;99523.44;2104804;28;20209;-74
2022/01/07 03:48:00;;;;;;;33.03;21.13;;;;;;;-5.25;100.00;99512.84;2104916;28;20218;-73
2022/01/07 03:49:00;;;;;;;27.63;20.45;;;;;;;-5.27;100.00;99520.03;2104923;28;20563;-74
2022/01/07 03:50:02;;;;;;;30.30;21.07;;;;;;;-5.25;100.00;99512.06;2104701;28;20274;-73
2022/01/07 03:51:04;;;;;;;24.55;20.58;;;;;;;-5.24;100.00;99514.47;2096877;28;20218;-73
2022/01/07 03:52:05;;;;;;;31.75;21.80;;;;;;;-5.23;100.00;99513.47;2096475;28;20228;-74
2022/01/07 03:53:09;;;;;;;28.92;20.90;;;;;;;-5.22;100.00;99506.47;2104764;28;20225;-74
2022/01/07 03:54:09;;;;;;;25.67;21.00;;;;;;;-5.21;100.00;99508.13;2105284;28;20278;-73
2022/01/07 03:55:14;;;;;;;24.57;20.73;;;;;;;-5.22;100.00;99509.88;2104729;28;20229;-74
2022/01/07 03:56:17;;;;;;;29.58;21.55;;;;;;;-5.25;100.00;99507.66;2104983;28;20707;-74
2022/01/07 03:57:19;;;;;;;23.33;19.95;;;;;;;-5.21;100.00;99500.31;2105082;28;20239;-73
2022/01/07 03:58:23;;;;;;;27.00;20.73;;;;;;;-5.21;100.00;99505.50;2104849;28;20236;-73
2022/01/07 03:59:24;;;;;;;26.65;20.50;;;;;;;-5.20;100.00;99499.31;2104216;28;20236;-73
2022/01/07 04:00:32;;;;;;;29.48;21.20;;;;;;;-5.18;100.00;99505.94;2104843;28;20304;-73
2022/01/07 04:01:34;;;;;;;31.67;21.02;;;;;;;-5.14;100.00;99499.38;2105464;28;20232;-73
2022/01/07 04:02:34;;;;;;;23.00;20.35;;;;;;;-5.15;100.00;99499.56;2105562;28;20221;-73
2022/01/07 04:03:36;;;;;;;25.10;20.50;;;;;;;-5.19;100.00;99506.13;2105319;28;20221;-73
2022/01/07 04:04:37;;;;;;;30.02;21.23;;;;;;;-5.21;100.00;99498.53;2104692;28;20226;-73
2022/01/07 04:05:40;;;;;;;27.67;21.10;;;;;;;-5.23;100.00;99500.47;2095750;28;20217;-74
2022/01/07 04:06:42;;;;;;;29.67;23.08;;;;;;;-5.26;100.00;99506.03;2097130;28;20226;-73
2022/01/07 04:07:43;;;;;;;28.37;21.47;;;;;;;-5.29;100.00;99501.22;2104573;28;20256;-73
2022/01/07 04:08:46;;;;;;;34.22;22.08;;;;;;;-5.30;100.00;99503.97;2104535;28;20220;-74
2022/01/07 04:09:47;;;;;;;31.98;21.90;;;;;;;-5.30;100.00;99504.81;2105473;28;20221;-73
2022/01/07 04:10:49;;;;;;;30.75;21.75;;;;;;;-5.34;100.00;99503.56;2104720;28;20222;-73
2022/01/07 04:11:51;;;;;;;31.63;21.25;;;;;;;-5.42;100.00;99504.47;2104491;28;20232;-74
2022/01/07 04:12:53;;;;;;;28.73;22.30;;;;;;;-5.41;100.00;99502.66;2104703;28;20655;-74
2022/01/07 04:13:54;;;;;;;33.63;21.63;;;;;;;-5.42;100.00;99507.06;2105203;28;20631;-74
2022/01/07 04:15:07;;;;;;;34.23;22.53;;;;;;;-5.42;100.00;99506.25;2104509;28;20225;-74
2022/01/07 04:16:09;;;;;;;29.23;21.63;;;;;;;-5.49;100.00;99507.97;2104405;28;20727;-73
2022/01/07 04:17:10;;;;;;;27.58;21.92;;;;;;;-5.54;100.00;99498.13;2104488;28;20221;-73
2022/01/07 04:18:11;;;;;;;30.63;22.07;;;;;;;-5.57;100.00;99497.66;2095910;28;20238;-73
2022/01/07 04:19:14;;;;;;;33.22;22.55;;;;;;;-5.60;100.00;99487.63;2104756;28;20292;-73
2022/01/07 04:20:17;;;;;;;33.47;21.58;;;;;;;-5.64;100.00;99486.41;2105519;28;20759;-73
2022/01/07 04:21:18;;;;;;;30.23;21.95;;;;;;;-5.66;100.00;99490.94;2105375;28;20282;-73
2022/01/07 04:22:19;;;;;;;24.20;21.63;;;;;;;-5.70;100.00;99493.91;2104504;28;20221;-73
2022/01/07 04:23:20;;;;;;;29.02;23.85;;;;;;;-5.70;100.00;99487.91;2104635;28;20221;-72
2022/01/07 04:24:23;;;;;;;31.10;23.37;;;;;;;-5.74;100.00;99497.84;2105444;28;20227;-73
2022/01/07 04:25:24;;;;;;;28.70;21.40;;;;;;;-5.77;100.00;99493.00;2104237;28;20225;-73
2022/01/07 04:26:26;;;;;;;27.13;21.95;;;;;;;-5.80;100.00;99498.59;2096101;28;20287;-72
2022/01/07 04:27:27;;;;;;;30.35;22.10;;;;;;;-5.82;100.00;99500.56;2096176;28;20256;-73
2022/01/07 04:28:29;;;;;;;32.20;22.37;;;;;;;-5.82;100.00;99497.97;2104658;28;20224;-73
2022/01/07 04:29:30;;;;;;;32.35;22.25;;;;;;;-5.82;100.00;99497.97;2105285;28;20225;-73
2022/01/07 04:30:34;;;;;;;33.20;22.47;;;;;;;-5.85;100.00;99490.50;2105360;28;20217;-73
2022/01/07 04:31:35;;;;;;;28.20;21.52;;;;;;;-5.86;100.00;99488.91;2104520;28;20217;-73
2022/01/07 04:32:37;;;;;;;28.50;21.97;;;;;;;-5.87;100.00;99492.50;2096220;28;20727;-73
2022/01/07 04:33:39;;;;;;;28.73;23.10;;;;;;;-5.90;100.00;99498.06;2104203;28;20229;-74
2022/01/07 04:34:41;;;;;;;33.72;22.45;;;;;;;-5.90;100.00;99484.28;2104497;28;20307;-73
2022/01/07 04:35:43;;;;;;;29.70;21.73;;;;;;;-5.92;100.00;99494.03;2104497;28;20745;-73
2022/01/07 04:36:45;;;;;;;32.22;22.73;;;;;;;-5.96;100.00;99485.78;2105228;28;20221;-73
2022/01/07 04:37:46;;;;;;;37.28;23.70;;;;;;;-5.96;100.00;99491.00;2105244;28;20225;-74
2022/01/07 04:38:48;;;;;;;34.38;22.40;;;;;;;-5.95;100.00;99500.38;2105290;28;20240;-73
2022/01/07 04:39:50;;;;;;;32.22;22.15;;;;;;;-5.94;100.00;99496.00;2105289;28;20233;-73
2022/01/07 04:40:54;;;;;;;32.30;23.35;;;;;;;-5.93;100.00;99503.63;2105119;28;20217;-73
2022/01/07 04:41:56;;;;;;;30.38;21.60;;;;;;;-5.93;100.00;99495.81;2104017;28;20221;-74
2022/01/07 04:42:58;;;;;;;32.88;21.75;;;;;;;-5.96;100.00;99492.78;2104641;28;20224;-74